createdAt,value
2024-03-16T00:00:10.911Z,11.29
2024-03-16T00:02:38.790Z,11.26
2024-03-16T00:05:07.338Z,11.26
2024-03-16T00:07:35.233Z,11.25
2024-03-16T00:10:03.554Z,11.23
2024-03-16T00:12:31.859Z,11.24
2024-03-16T00:14:59.964Z,11.23
2024-03-16T00:17:28.802Z,11.23
2024-03-16T00:19:56.829Z,11.24
2024-03-16T00:22:24.652Z,11.24
2024-03-16T00:24:51.523Z,11.24
2024-03-16T00:27:19.611Z,11.23
2024-03-16T00:29:47.528Z,11.22
2024-03-16T00:32:16.415Z,11.20
2024-03-16T00:34:44.525Z,11.23
2024-03-16T00:37:12.435Z,11.19
2024-03-16T00:39:41.165Z,11.17
2024-03-16T00:42:10.933Z,11.17
2024-03-16T00:44:38.803Z,11.16
2024-03-16T00:47:06.793Z,11.13
2024-03-16T00:49:36.007Z,11.13
2024-03-16T00:52:03.812Z,11.12
2024-03-16T00:54:31.841Z,11.11
2024-03-16T00:56:59.605Z,11.08
2024-03-16T00:59:29.313Z,11.08
2024-03-16T01:01:57.451Z,11.10
2024-03-16T01:04:25.800Z,11.08
2024-03-16T01:06:53.710Z,11.07
2024-03-16T01:09:22.069Z,11.10
2024-03-16T01:11:49.839Z,11.11
2024-03-16T01:14:17.610Z,11.09
2024-03-16T01:16:45.631Z,11.10
2024-03-16T01:19:13.417Z,11.11
2024-03-16T01:21:41.441Z,11.10
2024-03-16T01:24:09.340Z,11.08
2024-03-16T01:26:37.175Z,11.09
2024-03-16T01:29:05.303Z,11.09
2024-03-16T01:31:33.152Z,11.06
2024-03-16T01:34:01.009Z,11.02
2024-03-16T01:36:29.032Z,11.00
2024-03-16T01:38:57.117Z,11.00
2024-03-16T01:41:25.039Z,11.03
2024-03-16T01:43:52.917Z,10.98
2024-03-16T01:46:20.824Z,10.98
2024-03-16T01:48:53.080Z,10.92
2024-03-16T01:51:21.252Z,10.94
2024-03-16T01:53:49.200Z,10.92
2024-03-16T01:56:17.452Z,10.91
2024-03-16T01:58:46.651Z,10.90
2024-03-16T02:01:14.633Z,10.91
2024-03-16T02:03:44.201Z,10.89
2024-03-16T02:06:12.139Z,10.85
2024-03-16T02:08:40.054Z,10.83
2024-03-16T02:11:07.870Z,10.75
2024-03-16T02:13:35.840Z,10.74
2024-03-16T02:16:04.194Z,10.70
2024-03-16T02:18:32.168Z,10.68
2024-03-16T02:20:59.999Z,10.65
2024-03-16T02:23:28.039Z,10.59
2024-03-16T02:25:56.087Z,10.54
2024-03-16T02:28:23.928Z,10.55
2024-03-16T02:30:51.832Z,10.51
2024-03-16T02:33:19.761Z,10.49
2024-03-16T02:35:48.024Z,10.45
2024-03-16T02:38:15.969Z,10.45
2024-03-16T02:40:44.508Z,10.36
2024-03-16T02:43:12.613Z,10.34
2024-03-16T02:45:40.508Z,10.30
2024-03-16T02:48:08.741Z,10.23
2024-03-16T02:50:36.504Z,10.14
2024-03-16T02:53:04.935Z,10.13
2024-03-16T02:55:32.886Z,10.07
2024-03-16T02:58:00.682Z,10.09
2024-03-16T03:00:29.329Z,10.03
2024-03-16T03:02:58.432Z,10.01
2024-03-16T03:05:26.265Z,9.97
2024-03-16T03:07:54.572Z,9.95
2024-03-16T03:10:22.890Z,9.90
2024-03-16T03:12:50.871Z,9.89
2024-03-16T03:15:20.644Z,9.88
2024-03-16T03:17:49.410Z,9.87
2024-03-16T03:20:17.787Z,9.83
2024-03-16T03:22:45.563Z,9.78
2024-03-16T03:25:13.608Z,9.73
2024-03-16T03:27:41.604Z,9.65
2024-03-16T03:30:09.617Z,9.59
2024-03-16T03:32:37.576Z,9.60
2024-03-16T03:35:06.398Z,9.54
2024-03-16T03:37:34.212Z,9.48
2024-03-16T03:40:02.519Z,9.44
2024-03-16T03:42:34.332Z,9.39
2024-03-16T03:45:15.528Z,9.36
2024-03-16T03:47:51.534Z,9.35
2024-03-16T03:50:27.668Z,9.27
2024-03-16T03:52:56.322Z,9.16
2024-03-16T03:55:24.431Z,9.10
2024-03-16T03:57:55.370Z,9.05
2024-03-16T04:00:23.855Z,9.01
2024-03-16T04:02:51.686Z,9.00
2024-03-16T04:05:19.436Z,9.00
2024-03-16T04:07:47.269Z,8.97
2024-03-16T04:10:15.025Z,8.95
2024-03-16T04:12:42.878Z,8.97
2024-03-16T04:15:10.721Z,8.89
2024-03-16T04:17:38.644Z,8.88
2024-03-16T04:20:07.830Z,8.80
2024-03-16T04:22:35.731Z,8.75
2024-03-16T04:25:04.811Z,8.70
2024-03-16T04:27:32.693Z,8.63
2024-03-16T04:30:00.690Z,8.59
2024-03-16T04:32:28.901Z,8.57
2024-03-16T04:34:56.733Z,8.50
2024-03-16T04:37:24.674Z,8.48
2024-03-16T04:39:52.830Z,8.45
2024-03-16T04:42:21.181Z,8.45
2024-03-16T04:44:48.993Z,8.40
2024-03-16T04:47:16.806Z,8.29
2024-03-16T04:49:45.905Z,7.91
2024-03-16T04:52:15.123Z,7.60
2024-03-16T04:54:42.903Z,7.38
2024-03-16T04:57:10.810Z,7.29
2024-03-16T04:59:38.614Z,7.15
2024-03-16T05:02:07.153Z,6.99
2024-03-16T05:04:35.035Z,6.93
2024-03-16T05:07:02.851Z,6.78
2024-03-16T05:09:30.966Z,6.62
2024-03-16T05:11:58.854Z,6.58
2024-03-16T05:14:26.675Z,6.59
2024-03-16T05:16:54.418Z,6.54
2024-03-16T05:19:22.380Z,6.57
2024-03-16T05:21:50.197Z,6.59
2024-03-16T05:24:17.977Z,6.56
2024-03-16T05:26:45.928Z,6.53
2024-03-16T05:29:13.709Z,6.52
2024-03-16T05:31:41.450Z,6.52
2024-03-16T05:34:09.636Z,6.52
2024-03-16T05:36:37.466Z,6.56
2024-03-16T05:39:05.373Z,6.57
2024-03-16T05:41:33.479Z,6.54
2024-03-16T05:44:01.347Z,6.54
2024-03-16T05:46:29.205Z,6.58
2024-03-16T05:48:58.008Z,6.53
2024-03-16T05:51:28.371Z,6.58
2024-03-16T05:53:56.461Z,6.57
2024-03-16T05:56:24.341Z,6.52
2024-03-16T05:58:52.236Z,6.47
2024-03-16T06:01:20.282Z,6.54
2024-03-16T06:03:48.115Z,6.52
2024-03-16T06:06:16.638Z,6.50
2024-03-16T06:08:45.355Z,6.44
2024-03-16T06:11:13.163Z,6.40
2024-03-16T06:13:41.090Z,6.31
2024-03-16T06:16:09.124Z,6.30
2024-03-16T06:18:40.988Z,6.23
2024-03-16T06:21:11.148Z,6.24
2024-03-16T06:23:39.084Z,6.26
2024-03-16T06:26:07.715Z,6.25
2024-03-16T06:28:37.882Z,6.26
2024-03-16T06:31:11.604Z,6.35
2024-03-16T06:33:46.438Z,6.38
2024-03-16T06:36:14.309Z,6.40
2024-03-16T06:38:43.289Z,6.37
2024-03-16T06:41:11.512Z,6.33
2024-03-16T06:43:39.394Z,6.38
2024-03-16T06:46:09.431Z,6.38
2024-03-16T06:48:37.287Z,6.41
2024-03-16T06:51:05.293Z,6.47
2024-03-16T06:53:33.081Z,6.53
2024-03-16T06:56:00.835Z,6.52
2024-03-16T06:58:28.682Z,6.48
2024-03-16T07:00:56.663Z,6.44
2024-03-16T07:03:24.823Z,6.42
2024-03-16T07:05:52.529Z,6.40
2024-03-16T07:08:20.366Z,6.30
2024-03-16T07:10:48.146Z,6.31
2024-03-16T07:13:16.072Z,6.37
2024-03-16T07:15:45.274Z,6.38
2024-03-16T07:18:13.410Z,6.49
2024-03-16T07:20:41.171Z,6.61
2024-03-16T07:23:09.044Z,6.62
2024-03-16T07:25:36.934Z,6.57
2024-03-16T07:28:05.605Z,6.57
2024-03-16T07:30:33.593Z,6.66
2024-03-16T07:33:01.984Z,6.65
2024-03-16T07:35:30.130Z,6.69
2024-03-16T07:37:57.969Z,6.68
2024-03-16T07:40:25.720Z,6.75
2024-03-16T07:42:53.669Z,6.81
2024-03-16T07:45:21.650Z,6.72
2024-03-16T07:47:49.472Z,6.76
2024-03-16T07:50:17.258Z,6.75
2024-03-16T07:52:45.106Z,6.79
2024-03-16T07:55:13.170Z,6.83
2024-03-16T07:57:41.229Z,6.86
2024-03-16T08:00:12.470Z,6.95
2024-03-16T08:02:41.475Z,7.01
2024-03-16T08:05:12.498Z,7.04
2024-03-16T08:07:41.840Z,7.19
2024-03-16T08:10:11.170Z,7.27
2024-03-16T08:12:39.045Z,7.29
2024-03-16T08:15:07.882Z,7.27
2024-03-16T08:17:35.760Z,7.31
2024-03-16T08:20:03.800Z,7.33
2024-03-16T08:22:31.666Z,7.35
2024-03-16T08:24:59.515Z,7.34
2024-03-16T08:27:32.490Z,7.47
2024-03-16T08:30:02.652Z,7.46
2024-03-16T08:32:31.016Z,7.59
2024-03-16T08:34:58.791Z,7.68
2024-03-16T08:37:26.661Z,7.93
2024-03-16T08:39:54.596Z,7.92
2024-03-16T08:42:22.598Z,7.98
2024-03-16T08:44:50.379Z,8.24
2024-03-16T08:47:18.153Z,8.34
2024-03-16T08:49:45.891Z,8.43
2024-03-16T08:52:14.554Z,8.59
2024-03-16T08:54:42.452Z,8.47
2024-03-16T08:57:10.193Z,8.68
2024-03-16T08:59:39.578Z,8.58
2024-03-16T09:02:07.473Z,8.36
2024-03-16T09:04:35.722Z,8.33
2024-03-16T09:07:03.793Z,8.27
2024-03-16T09:09:31.653Z,9.05
2024-03-16T09:11:59.454Z,9.13
2024-03-16T09:14:27.341Z,8.85
2024-03-16T09:16:55.106Z,8.70
2024-03-16T09:19:22.952Z,8.22
2024-03-16T09:21:52.004Z,8.07
2024-03-16T09:24:19.818Z,7.93
2024-03-16T09:26:47.607Z,8.10
2024-03-16T09:29:15.500Z,8.33
2024-03-16T09:31:43.380Z,8.47
2024-03-16T09:34:12.850Z,8.71
2024-03-16T09:36:41.194Z,8.69
2024-03-16T09:39:11.766Z,8.99
2024-03-16T09:41:40.598Z,8.85
